createdAt,value
2022-11-26T00:01:02.515Z,0.80
2022-11-26T00:03:52.571Z,0.80
2022-11-26T00:06:41.030Z,0.90
2022-11-26T00:09:28.480Z,1.00
2022-11-26T00:12:17.243Z,1.00
2022-11-26T00:15:12.469Z,1.00
2022-11-26T00:18:00.024Z,1.10
2022-11-26T00:20:50.511Z,1.20
2022-11-26T00:23:38.572Z,1.20
2022-11-26T00:26:26.041Z,1.20
2022-11-26T00:29:14.025Z,1.30
2022-11-26T00:32:01.633Z,1.40
2022-11-26T00:34:49.387Z,1.40
2022-11-26T00:37:40.227Z,1.50
2022-11-26T00:40:28.704Z,1.50
2022-11-26T00:43:17.113Z,1.60
2022-11-26T00:46:04.477Z,1.70
2022-11-26T00:48:52.542Z,1.70
2022-11-26T00:51:40.079Z,1.80
2022-11-26T00:54:29.849Z,1.90
2022-11-26T00:57:17.250Z,1.90
2022-11-26T01:00:07.976Z,2.00
2022-11-26T01:02:56.223Z,2.00
2022-11-26T01:05:43.907Z,2.10
2022-11-26T01:08:33.042Z,2.20
2022-11-26T01:11:23.626Z,2.20
2022-11-26T01:14:14.817Z,2.30
2022-11-26T01:17:02.470Z,2.40
2022-11-26T01:19:49.739Z,2.40
2022-11-26T01:22:37.015Z,2.50
2022-11-26T01:25:25.315Z,2.50
2022-11-26T01:28:14.716Z,2.60
2022-11-26T01:31:02.140Z,2.60
2022-11-26T01:33:49.762Z,2.70
2022-11-26T01:36:38.132Z,2.70
2022-11-26T01:39:25.839Z,2.70
2022-11-26T01:42:22.426Z,2.80
2022-11-26T01:45:17.457Z,2.80
2022-11-26T01:48:12.294Z,2.90
2022-11-26T01:51:03.915Z,2.90
2022-11-26T01:53:52.914Z,2.90
2022-11-26T01:56:42.073Z,3.00
2022-11-26T01:59:30.730Z,3.00
2022-11-26T02:02:18.851Z,3.10
2022-11-26T02:05:10.187Z,3.10
2022-11-26T02:07:58.103Z,3.10
2022-11-26T02:10:45.956Z,3.20
2022-11-26T02:13:33.263Z,3.20
2022-11-26T02:16:25.519Z,3.20
2022-11-26T02:19:44.784Z,3.30
2022-11-26T02:23:21.081Z,3.30
2022-11-26T02:26:47.210Z,3.30
2022-11-26T02:29:54.224Z,3.40
2022-11-26T02:32:44.188Z,3.40
2022-11-26T02:35:34.212Z,3.40
2022-11-26T02:38:22.724Z,3.40
2022-11-26T02:41:10.275Z,3.50
2022-11-26T02:43:57.550Z,3.50
2022-11-26T02:46:49.464Z,3.50
2022-11-26T02:49:40.062Z,3.50
2022-11-26T02:52:29.466Z,3.60
2022-11-26T02:55:20.122Z,3.60
2022-11-26T02:58:10.216Z,3.60
2022-11-26T03:01:00.344Z,3.60
2022-11-26T03:03:54.162Z,3.70
2022-11-26T03:06:42.509Z,3.70
2022-11-26T03:09:40.583Z,3.70
2022-11-26T03:12:28.419Z,3.70
2022-11-26T03:15:16.359Z,3.70
2022-11-26T03:18:04.131Z,3.70
2022-11-26T03:20:52.967Z,3.80
2022-11-26T03:23:40.446Z,3.80
2022-11-26T03:26:28.224Z,3.80
2022-11-26T03:29:16.308Z,3.90
2022-11-26T03:32:03.752Z,3.90
2022-11-26T03:34:51.535Z,3.90
2022-11-26T03:37:40.051Z,3.90
2022-11-26T03:40:27.372Z,3.90
2022-11-26T03:43:14.694Z,3.90
2022-11-26T03:46:02.085Z,4.00
2022-11-26T03:48:49.764Z,4.00
2022-11-26T03:51:37.260Z,4.00
2022-11-26T03:54:26.501Z,4.00
2022-11-26T03:57:14.023Z,4.00
2022-11-26T04:00:01.525Z,4.00
2022-11-26T04:02:52.221Z,4.10
2022-11-26T04:05:39.790Z,4.10
2022-11-26T04:08:27.001Z,4.10
2022-11-26T04:11:16.346Z,4.10
2022-11-26T04:14:03.783Z,4.10
2022-11-26T04:16:51.465Z,4.10
2022-11-26T04:19:38.972Z,4.10
2022-11-26T04:22:26.687Z,4.20
2022-11-26T04:25:14.240Z,4.20
2022-11-26T04:28:03.007Z,4.20
2022-11-26T04:30:50.462Z,4.20
2022-11-26T04:33:37.867Z,4.20
2022-11-26T04:36:25.012Z,4.20
2022-11-26T04:39:12.805Z,4.20
2022-11-26T04:42:00.459Z,4.30
2022-11-26T04:44:49.587Z,4.30
2022-11-26T04:47:41.488Z,4.30
2022-11-26T04:50:30.420Z,4.30
2022-11-26T04:53:21.900Z,4.30
2022-11-26T04:56:09.276Z,4.30
2022-11-26T04:58:56.886Z,4.30
2022-11-26T05:01:45.720Z,4.40
2022-11-26T05:04:33.044Z,4.40
2022-11-26T05:07:20.775Z,4.40
2022-11-26T05:10:09.294Z,4.40
2022-11-26T05:12:57.093Z,4.40
2022-11-26T05:15:44.366Z,4.40
2022-11-26T05:18:33.350Z,4.40
2022-11-26T05:21:20.671Z,4.40
2022-11-26T05:24:08.230Z,4.40
2022-11-26T05:26:57.387Z,4.40
2022-11-26T05:29:44.818Z,4.40
2022-11-26T05:32:32.261Z,4.40
2022-11-26T05:35:21.039Z,4.40
2022-11-26T05:38:08.477Z,4.40
2022-11-26T05:40:55.930Z,4.40
2022-11-26T05:43:43.444Z,4.40
2022-11-26T05:46:31.196Z,4.40
2022-11-26T05:49:18.423Z,4.40
2022-11-26T05:52:07.430Z,4.50
2022-11-26T05:54:54.838Z,4.50
2022-11-26T05:57:42.347Z,4.50
2022-11-26T06:00:29.643Z,4.50
2022-11-26T06:03:20.149Z,4.50
2022-11-26T06:06:08.492Z,4.50
2022-11-26T06:08:57.804Z,4.50
2022-11-26T06:11:45.297Z,4.50
2022-11-26T06:14:32.720Z,4.60
2022-11-26T06:17:20.429Z,4.60
2022-11-26T06:20:08.200Z,4.60
2022-11-26T06:22:55.991Z,4.60
2022-11-26T06:25:44.767Z,4.60
2022-11-26T06:28:32.154Z,4.60
2022-11-26T06:31:19.902Z,4.60
2022-11-26T06:34:07.519Z,4.70
2022-11-26T06:36:55.063Z,4.70
2022-11-26T06:39:42.628Z,4.70
2022-11-26T06:42:31.674Z,4.80
2022-11-26T06:45:19.650Z,4.80
2022-11-26T06:48:07.057Z,4.80
2022-11-26T06:50:54.729Z,4.80
2022-11-26T06:53:42.346Z,4.80
2022-11-26T06:56:30.053Z,4.90
2022-11-26T06:59:18.763Z,4.90
2022-11-26T07:02:06.069Z,5.00
2022-11-26T07:04:53.489Z,5.00
2022-11-26T07:07:41.260Z,5.00
2022-11-26T07:10:29.083Z,5.10
2022-11-26T07:13:16.777Z,5.10
2022-11-26T07:16:06.543Z,5.20
2022-11-26T07:18:59.217Z,5.20
2022-11-26T07:21:50.138Z,5.30
2022-11-26T07:24:38.462Z,5.30
2022-11-26T07:27:26.347Z,5.30
2022-11-26T07:30:15.224Z,5.40
2022-11-26T07:33:04.342Z,5.40
2022-11-26T07:35:51.860Z,5.50
2022-11-26T07:38:39.694Z,5.50
2022-11-26T07:41:29.688Z,5.60
2022-11-26T07:44:17.580Z,5.60
2022-11-26T07:47:05.652Z,5.70
2022-11-26T07:49:54.983Z,5.70
2022-11-26T07:52:42.934Z,5.80
2022-11-26T07:55:30.520Z,5.80
2022-11-26T07:58:18.156Z,5.80
2022-11-26T08:01:10.080Z,5.90
2022-11-26T08:03:58.759Z,5.90
2022-11-26T08:06:48.679Z,6.00
2022-11-26T08:09:36.896Z,6.10
2022-11-26T08:12:24.935Z,6.10
2022-11-26T08:15:13.081Z,6.20
2022-11-26T08:18:00.948Z,6.20
2022-11-26T08:20:56.096Z,6.30
2022-11-26T08:23:45.282Z,6.40
2022-11-26T08:26:42.437Z,6.40
2022-11-26T08:29:31.511Z,6.40
2022-11-26T08:32:19.323Z,6.50
2022-11-26T08:35:07.451Z,6.50
2022-11-26T08:37:55.536Z,6.50
2022-11-26T08:40:44.913Z,6.60
2022-11-26T08:44:04.046Z,6.60
2022-11-26T08:46:42.805Z,6.60
2022-11-26T08:49:30.400Z,6.60
2022-11-26T08:52:18.123Z,6.70
2022-11-26T08:55:06.790Z,6.70
2022-11-26T08:57:56.225Z,6.70
2022-11-26T09:00:44.365Z,6.70
2022-11-26T09:03:32.493Z,6.70
2022-11-26T09:06:22.123Z,6.80
2022-11-26T09:09:18.084Z,6.80
2022-11-26T09:12:05.789Z,6.90
2022-11-26T09:14:54.816Z,6.90
2022-11-26T09:17:42.297Z,6.90
2022-11-26T09:20:29.866Z,6.90
2022-11-26T09:23:17.093Z,6.90
2022-11-26T09:26:04.324Z,6.90
2022-11-26T09:28:51.719Z,7.00
2022-11-26T09:32:00.574Z,7.00
2022-11-26T09:34:48.055Z,7.00
2022-11-26T09:37:35.479Z,7.10
2022-11-26T09:40:26.578Z,7.10
2022-11-26T09:43:20.135Z,7.10
2022-11-26T09:46:08.122Z,7.10
2022-11-26T09:48:59.271Z,7.00
2022-11-26T09:51:52.695Z,7.00
2022-11-26T09:54:40.731Z,7.00
2022-11-26T09:57:29.988Z,7.00
2022-11-26T10:00:27.738Z,7.00
2022-11-26T10:03:16.530Z,6.90
2022-11-26T10:06:06.947Z,6.90
2022-11-26T10:09:00.952Z,6.90
2022-11-26T10:11:53.604Z,6.80
2022-11-26T10:14:48.202Z,6.70
2022-11-26T10:17:39.038Z,6.60
2022-11-26T10:20:44.334Z,6.60
2022-11-26T10:23:34.618Z,6.60
2022-11-26T10:26:24.834Z,6.50
2022-11-26T10:29:17.835Z,6.50
2022-11-26T10:32:12.462Z,6.40
2022-11-26T10:34:59.987Z,6.40
2022-11-26T10:37:47.412Z,6.40
2022-11-26T10:40:36.817Z,6.40
2022-11-26T10:43:25.232Z,6.40
2022-11-26T10:46:30.652Z,6.40
2022-11-26T10:49:23.229Z,6.40
2022-11-26T10:52:10.789Z,6.40
2022-11-26T10:55:08.966Z,6.40
2022-11-26T10:58:02.565Z,6.40
2022-11-26T11:00:59.568Z,6.40
2022-11-26T11:04:08.524Z,6.40
2022-11-26T11:06:56.549Z,6.30
2022-11-26T11:09:44.129Z,6.30
2022-11-26T11:12:31.601Z,6.30
2022-11-26T11:15:25.292Z,6.20
2022-11-26T11:18:18.576Z,6.20
2022-11-26T11:21:06.558Z,6.10
2022-11-26T11:24:09.075Z,6.10
2022-11-26T11:26:57.482Z,6.10
2022-11-26T11:29:45.526Z,6.20
2022-11-26T11:32:36.888Z,6.20
2022-11-26T11:35:25.332Z,6.30
2022-11-26T11:38:22.836Z,6.30
2022-11-26T11:41:22.720Z,6.30
2022-11-26T11:44:16.580Z,6.30
2022-11-26T11:47:14.875Z,6.30
2022-11-26T11:50:09.603Z,6.30
2022-11-26T11:53:03.563Z,6.40
2022-11-26T11:56:02.681Z,6.40
2022-11-26T11:58:57.309Z,6.40
2022-11-26T12:01:53.987Z,6.50
2022-11-26T12:04:52.832Z,6.50
2022-11-26T12:07:42.347Z,6.50
2022-11-26T12:10:35.753Z,6.50
2022-11-26T12:13:24.799Z,6.50
2022-11-26T12:16:13.432Z,6.50
2022-11-26T12:19:02.230Z,6.50
2022-11-26T12:21:51.728Z,6.60
2022-11-26T12:24:44.706Z,6.70
2022-11-26T12:27:34.647Z,6.80
2022-11-26T12:30:23.037Z,6.90
2022-11-26T12:33:13.814Z,6.90
2022-11-26T12:36:03.188Z,7.00
2022-11-26T12:38:53.545Z,7.00
2022-11-26T12:41:45.052Z,7.10
2022-11-26T12:44:34.815Z,7.10
2022-11-26T12:47:23.788Z,7.10
2022-11-26T12:50:16.583Z,7.10
2022-11-26T12:53:08.889Z,7.20
2022-11-26T12:55:59.870Z,7.20
2022-11-26T12:58:56.601Z,7.10
2022-11-26T13:01:44.486Z,7.10
2022-11-26T13:04:38.921Z,7.10
2022-11-26T13:07:35.714Z,7.10
2022-11-26T13:10:29.437Z,7.00
2022-11-26T13:13:19.501Z,7.00
2022-11-26T13:16:13.900Z,6.90
2022-11-26T13:19:06.727Z,6.90
2022-11-26T13:22:02.126Z,6.90
2022-11-26T13:25:00.223Z,6.90
2022-11-26T13:27:53.875Z,6.90
2022-11-26T13:30:48.223Z,6.90
2022-11-26T13:33:48.523Z,6.90
2022-11-26T13:36:41.492Z,6.80
2022-11-26T13:39:48.239Z,6.70
2022-11-26T13:42:50.479Z,6.70
2022-11-26T13:45:57.168Z,6.60
2022-11-26T13:48:50.818Z,6.60
2022-11-26T13:51:39.740Z,6.60
2022-11-26T13:54:28.431Z,6.60
2022-11-26T13:57:17.077Z,6.60
2022-11-26T14:00:05.008Z,6.50
2022-11-26T14:02:55.477Z,6.60
2022-11-26T14:06:07.684Z,6.60
2022-11-26T14:08:57.540Z,6.50
2022-11-26T14:12:00.077Z,6.50
2022-11-26T14:14:47.951Z,6.50
2022-11-26T14:17:55.796Z,6.40
2022-11-26T14:20:57.759Z,6.40
2022-11-26T14:23:45.790Z,6.40
2022-11-26T14:26:37.736Z,6.40
2022-11-26T14:29:25.199Z,6.40
2022-11-26T14:32:14.737Z,6.40
2022-11-26T14:35:02.364Z,6.40
2022-11-26T14:37:53.696Z,6.30
2022-11-26T14:40:41.100Z,6.30
2022-11-26T14:43:30.487Z,6.30
2022-11-26T14:46:18.754Z,6.30
2022-11-26T14:49:14.785Z,6.20
2022-11-26T14:52:03.616Z,6.20
2022-11-26T14:54:52.902Z,6.20
2022-11-26T14:57:43.228Z,6.20
2022-11-26T15:00:32.579Z,6.20
2022-11-26T15:03:20.492Z,6.10
2022-11-26T15:06:08.378Z,6.10
2022-11-26T15:09:10.652Z,6.10
2022-11-26T15:12:02.264Z,6.10
2022-11-26T15:14:54.591Z,6.00
2022-11-26T15:17:45.395Z,6.00
2022-11-26T15:20:33.349Z,6.00
2022-11-26T15:23:26.879Z,6.00
2022-11-26T15:26:17.036Z,5.90
2022-11-26T15:29:21.743Z,5.90
2022-11-26T15:32:24.435Z,5.90
2022-11-26T15:35:15.148Z,5.90
2022-11-26T15:58:28.629Z,23.80
2022-11-26T16:01:19.963Z,23.20
2022-11-26T16:09:53.980Z,14.00
2022-11-26T16:12:44.742Z,10.90
2022-11-26T16:15:32.209Z,9.00
2022-11-26T16:18:21.479Z,7.90
2022-11-26T16:37:33.603Z,10.70
2022-11-26T16:40:21.294Z,9.40
2022-11-26T16:43:08.436Z,8.30
2022-11-26T16:45:56.423Z,7.70
2022-11-26T16:50:47.138Z,7.30
2022-11-26T16:53:34.698Z,6.70
2022-11-26T16:56:23.420Z,6.50
2022-11-26T16:59:18.379Z,6.30
2022-11-26T17:02:07.898Z,6.10
2022-11-26T17:04:55.249Z,6.00
2022-11-26T17:07:46.688Z,5.90
2022-11-26T17:10:34.499Z,5.80
2022-11-26T17:13:21.963Z,5.70
2022-11-26T17:18:33.746Z,5.70
2022-11-26T17:21:21.028Z,5.60
2022-11-26T17:24:09.176Z,5.60
2022-11-26T17:26:57.079Z,6.00
2022-11-26T17:29:45.190Z,6.50
2022-11-26T17:32:32.472Z,6.60
2022-11-26T17:35:21.222Z,6.40
2022-11-26T17:38:16.047Z,6.40
2022-11-26T17:41:03.515Z,6.70
2022-11-26T17:43:50.949Z,7.00
2022-11-26T17:46:54.504Z,7.00
2022-11-26T17:49:46.296Z,6.80
2022-11-26T17:52:35.320Z,6.60
2022-11-26T17:55:23.872Z,6.40
2022-11-26T17:58:13.313Z,6.20
2022-11-26T18:01:00.332Z,6.10
2022-11-26T18:03:48.496Z,6.00
2022-11-26T18:06:44.620Z,5.90
2022-11-26T18:09:33.966Z,5.80
2022-11-26T18:12:25.166Z,5.80
2022-11-26T18:15:18.543Z,5.70
2022-11-26T18:18:06.106Z,5.70
2022-11-26T18:20:53.265Z,5.70
2022-11-26T18:23:42.094Z,5.60
2022-11-26T18:26:30.669Z,5.60
2022-11-26T18:29:19.679Z,5.60
2022-11-26T18:32:07.111Z,5.60
2022-11-26T18:34:54.305Z,5.60
2022-11-26T18:37:42.097Z,5.60
2022-11-26T18:40:29.315Z,5.60
2022-11-26T18:43:17.658Z,5.60
2022-11-26T18:46:05.882Z,5.60
2022-11-26T18:48:53.336Z,5.60
2022-11-26T18:51:40.272Z,5.50
2022-11-26T18:54:27.514Z,5.50
2022-11-26T18:57:14.637Z,5.50
2022-11-26T19:00:03.532Z,5.50
2022-11-26T19:02:50.632Z,5.50
2022-11-26T19:05:38.521Z,5.50
2022-11-26T19:08:26.035Z,5.50
2022-11-26T19:11:15.322Z,5.50
2022-11-26T19:14:02.436Z,5.50
2022-11-26T19:16:52.449Z,5.50
2022-11-26T19:19:39.549Z,5.40
2022-11-26T19:22:26.927Z,5.50
2022-11-26T19:25:14.527Z,5.50
2022-11-26T19:28:04.877Z,5.50
2022-11-26T19:31:00.279Z,5.50
2022-11-26T19:33:52.726Z,5.50
2022-11-26T19:36:39.947Z,5.50
2022-11-26T19:39:26.880Z,5.50
2022-11-26T19:42:13.750Z,5.50
2022-11-26T19:45:00.755Z,5.50
2022-11-26T19:47:48.006Z,5.50
2022-11-26T19:50:36.377Z,5.50
2022-11-26T19:53:23.307Z,5.50
2022-11-26T19:56:13.689Z,5.50
2022-11-26T19:59:02.317Z,5.50
2022-11-26T20:01:49.849Z,5.50
2022-11-26T20:04:36.935Z,5.50
2022-11-26T20:07:25.440Z,5.50
2022-11-26T20:10:14.838Z,5.50
2022-11-26T20:13:02.176Z,5.50
2022-11-26T20:15:49.120Z,5.50
2022-11-26T20:18:38.898Z,5.40
2022-11-26T20:21:27.841Z,5.40
2022-11-26T20:24:17.562Z,5.40
2022-11-26T20:27:04.739Z,5.40
2022-11-26T20:29:52.027Z,5.40
2022-11-26T20:32:39.022Z,5.40
2022-11-26T20:35:26.170Z,5.40
2022-11-26T20:38:13.505Z,5.40
2022-11-26T20:41:01.841Z,5.40
2022-11-26T20:43:51.363Z,5.40
2022-11-26T20:46:41.940Z,5.40
2022-11-26T20:49:33.678Z,5.40
2022-11-26T20:52:24.154Z,5.40
2022-11-26T20:55:11.549Z,5.40
2022-11-26T20:57:59.960Z,5.40
2022-11-26T21:00:47.028Z,5.40
2022-11-26T21:03:33.895Z,5.40
2022-11-26T21:06:28.946Z,5.40
2022-11-26T21:09:16.791Z,5.40
2022-11-26T21:12:03.844Z,5.40
2022-11-26T21:14:52.434Z,5.40
2022-11-26T21:17:39.512Z,5.40
2022-11-26T21:20:27.510Z,5.40
2022-11-26T21:23:16.345Z,5.40
2022-11-26T21:26:07.440Z,5.40
2022-11-26T21:28:56.242Z,5.40
2022-11-26T21:31:44.533Z,5.40
2022-11-26T21:34:31.835Z,5.30
2022-11-26T21:37:18.945Z,5.30
2022-11-26T21:40:07.252Z,5.30
2022-11-26T21:42:54.558Z,5.30
2022-11-26T21:45:41.426Z,5.30
2022-11-26T21:48:30.056Z,5.30
2022-11-26T21:51:18.888Z,5.20
2022-11-26T21:54:06.615Z,5.20
2022-11-26T21:56:53.978Z,5.20
2022-11-26T21:59:41.380Z,5.20
2022-11-26T22:02:28.850Z,5.20
2022-11-26T22:05:17.265Z,5.20
2022-11-26T22:08:04.477Z,5.20
2022-11-26T22:10:51.414Z,5.20
2022-11-26T22:13:38.651Z,5.20
2022-11-26T22:16:27.424Z,5.20
2022-11-26T22:19:14.811Z,5.20
2022-11-26T22:22:03.096Z,5.20
2022-11-26T22:24:50.258Z,5.20
2022-11-26T22:27:37.337Z,5.20
2022-11-26T22:30:24.118Z,5.20
2022-11-26T22:33:11.159Z,5.20
2022-11-26T22:36:02.007Z,5.20
2022-11-26T22:38:50.762Z,5.20
2022-11-26T22:41:38.509Z,5.20
2022-11-26T22:44:25.661Z,5.20
2022-11-26T22:47:12.794Z,5.10
2022-11-26T22:49:59.869Z,5.10
2022-11-26T22:52:47.031Z,5.10
2022-11-26T22:55:35.395Z,5.10
2022-11-26T22:58:23.721Z,5.10
2022-11-26T23:01:16.485Z,5.10
2022-11-26T23:04:05.343Z,5.10
2022-11-26T23:06:52.630Z,5.10
2022-11-26T23:09:43.883Z,5.10
2022-11-26T23:12:34.817Z,5.10
2022-11-26T23:15:21.716Z,5.10
2022-11-26T23:18:09.304Z,5.10
2022-11-26T23:21:04.736Z,5.10
2022-11-26T23:23:52.659Z,5.10
2022-11-26T23:26:41.235Z,5.10
2022-11-26T23:29:29.685Z,5.10
2022-11-26T23:32:16.626Z,5.10
2022-11-26T23:35:03.582Z,5.10
2022-11-26T23:37:50.416Z,5.10
2022-11-26T23:40:37.341Z,5.10
2022-11-26T23:43:25.143Z,5.10
2022-11-26T23:46:16.703Z,5.10
2022-11-26T23:49:03.466Z,5.10
2022-11-26T23:51:50.647Z,5.10
2022-11-26T23:54:37.782Z,5.10
2022-11-26T23:57:24.848Z,5.10
